Chelan, WA

4:19 AM PDT en Octubre 20, 2014 (GMT -0700)
The Highlands | Change Station
CLOSE
Current Station
Estación meteorológica personal
Location: Chelan, WA
Altura: 1610 ft
Estaciones meteorológicas cercanas

Alt 1610 ft 47.86 °N, 120.04 °W | Updated 13 minutes ago

Parcialmente nublado
Parcialmente nublado
53.0 ° F
Sensación térmica 53.0 ° F
N
1.0
Viento Variable Viento desde NE
Gusts 3.0 mph

Hoy
Alta -- | Baja -- ° F
--% Posibilidad de precipitaciones
Ayer
Alta -- | Baja -- ° F
Precip. -- pul
7:26 AM 6:02 PM
Creciente menguante, 11% visible
Presión 29.71 pul
Visibilidad 4.0 Millas
Nubes Despejado
Punto de rocío 51 ° F
Humedad 91%
Precipitaciones 0.00 pul
Espesor de la nieve No disponible.
UV 0 de una escala de 12
Polen .40 de una escala de 12
Calidad del aire No disponible.
Flu Activity Sporadic
METAR KEAT 201055Z AUTO 30008KT 4SM HZ CLR 11/08 A2972 RMK AO2 SLP060 T01110083

More Conditions Fewer Conditions

Presión 29.71 pul
Visibilidad 4.0 Millas
Nubes Despejado
Punto de rocío 51 ° F
Humedad 91%
Precipitaciones 0.00 pul
Espesor de la nieve No disponible.
UV 0 de una escala de 12
Polen .40 de una escala de 12
Calidad del aire No disponible.
Flu Activity Sporadic
METAR KEAT 201055Z AUTO 30008KT 4SM HZ CLR 11/08 A2972 RMK AO2 SLP060 T01110083

More Conditions Fewer Conditions

10-Day Weather Forecast

Almanac

Astronomía

Oct. 20, 2014 Salida Puesta
Hora real 7:26 AM PDT 6:02 PM PDT
Crepúsculo civil 6:55 AM PDT 6:33 PM PDT
Crepúsculo náutico 6:19 AM PDT 7:09 PM PDT
Crepúsculo astronómico 5:43 AM PDT 7:45 PM PDT
Luna 4:06 AM PDT 4:38 PM PDT
Horas de luz 11h 38m
Horas de luz
10h 35m
Creciente menguante, 11% of the Moon is Illuminated
Hoy
Creciente menguante
Oct 23
Nueva
Oct 30
Cuarto creciente
Nov 6
Luna llena
Nov 14
Cuarto menguante

Extremos de hoy

Máximos del estado Bajos del estado

Community

WunderPhotos

Upload Photos

1,763,338 ¡fotos cargadas!

Nearby

Grosos de nieve

Estación Profundido Altura
Pope Ridge 0 in 3540 ft
Trough 0 in 5300 ft
Grouse Camp 0 in 5380 ft
Stevens Pass 0 in 4070 ft
Moses Mountain 0 in 5300 ft

Actividad de terremotos

Ciudad Distance Mag. Tiempo y dato
No hay informes recientes de la actividad sísmica.
Magnitud mínima muestra es 2,5.

Temperaturas de aguas costeras

Lugar Temperatura
Sin partes meteorológicos de las estaciones

Estaciones meteorológicas cercanas